Time;durP1;ratioP1;P1;durP2;ratioP2;P2;SDS_P1;SDS_P2;PMS_P1;PMS_P2;Temp;Humidity;BMP_temperature;BMP_pressure;BME280_temperature;BME280_humidity;BME280_pressure;Samples;Min_cycle;Max_cycle;Signal;HPM_P1;HPM_P2
2024/01/22 00:00:10;;;;;;;51.67;28.73;;;;;;;-5.01;57.04;95442.56;5114451;28;20038;-69
2024/01/22 00:02:36;;;;;;;51.67;30.02;;;;;;;-4.49;57.04;95476.25;5114420;28;20031;-69
2024/01/22 00:05:02;;;;;;;64.82;35.30;;;;;;;-4.84;57.61;95476.97;5114220;28;20118;-69
2024/01/22 00:07:27;;;;;;;65.60;35.33;;;;;;;-4.81;57.70;95486.16;5114861;28;20024;-69
2024/01/22 00:09:53;;;;;;;59.42;32.90;;;;;;;-4.84;58.03;95476.16;5113993;28;20050;-69
2024/01/22 00:12:18;;;;;;;63.10;36.28;;;;;;;-4.79;58.30;95495.41;5114039;28;20126;-69
2024/01/22 00:14:44;;;;;;;70.45;36.95;;;;;;;-4.72;58.27;95480.72;5113974;28;20036;-68
2024/01/22 00:17:10;;;;;;;61.00;35.65;;;;;;;-4.56;58.04;95493.53;5114074;28;20032;-69
2024/01/22 00:19:35;;;;;;;69.00;37.33;;;;;;;-4.35;57.20;95473.84;5113480;28;20030;-69
2024/01/22 00:22:01;;;;;;;66.40;35.53;;;;;;;-4.31;57.12;95478.50;5113185;28;20023;-69
2024/01/22 00:24:26;;;;;;;62.97;34.85;;;;;;;-4.29;57.21;95488.72;5113230;28;20396;-69
2024/01/22 00:26:51;;;;;;;72.05;36.25;;;;;;;-4.44;57.21;95488.72;5091701;28;20142;-68
2024/01/22 00:29:17;;;;;;;63.03;35.58;;;;;;;-4.31;57.16;95494.06;5092017;28;20518;-69
2024/01/22 00:31:42;;;;;;;65.68;35.95;;;;;;;-4.18;56.87;95498.63;5091676;28;20511;-69
2024/01/22 00:34:08;;;;;;;62.88;35.03;;;;;;;-4.07;56.98;95492.97;5093425;28;20020;-69
2024/01/22 00:36:33;;;;;;;54.38;31.92;;;;;;;-4.12;56.74;95487.50;5092224;28;20024;-69
2024/01/22 00:38:58;;;;;;;65.13;36.35;;;;;;;-4.27;57.12;95510.91;5093339;28;20127;-67
2024/01/22 00:41:24;;;;;;;66.82;33.75;;;;;;;-4.54;58.14;95509.72;5093373;28;20028;-69
2024/01/22 00:43:49;;;;;;;62.05;34.25;;;;;;;-4.70;58.62;95498.72;5093265;28;20134;-68
2024/01/22 00:46:15;;;;;;;62.33;32.25;;;;;;;-4.59;58.20;95488.72;5093758;28;20473;-69
2024/01/22 00:48:40;;;;;;;64.63;35.13;;;;;;;-4.45;57.64;95497.47;5091814;28;20032;-67
2024/01/22 00:51:05;;;;;;;67.07;36.08;;;;;;;-5.32;59.06;95467.81;5091839;28;20036;-69
2024/01/22 00:53:31;;;;;;;68.50;36.65;;;;;;;-5.87;62.06;95483.59;5091964;28;20543;-68
2024/01/22 00:55:56;;;;;;;62.85;35.10;;;;;;;-5.16;60.24;95466.84;5092259;28;20044;-69
2024/01/22 00:58:21;;;;;;;67.68;34.95;;;;;;;-4.97;59.56;95481.94;5092793;28;20043;-69
2024/01/22 01:00:47;;;;;;;68.32;36.20;;;;;;;-5.66;60.90;95459.66;5090950;28;20050;-69
2024/01/22 01:03:12;;;;;;;61.50;32.28;;;;;;;-5.40;61.40;95473.88;5092157;28;20492;-69
2024/01/22 01:05:37;;;;;;;58.83;32.42;;;;;;;-4.92;60.39;95469.22;5092577;28;20119;-69
2024/01/22 01:08:03;;;;;;;57.92;30.58;;;;;;;-4.59;59.11;95480.91;5092421;28;20454;-69
2024/01/22 01:10:28;;;;;;;60.20;31.48;;;;;;;-4.45;58.26;95487.09;5091638;28;20112;-69
2024/01/22 01:12:54;;;;;;;59.70;33.45;;;;;;;-4.88;59.70;95481.66;5092058;28;20040;-69
2024/01/22 01:15:20;;;;;;;65.22;33.17;;;;;;;-5.29;61.11;95483.03;5092345;28;20452;-69
2024/01/22 01:17:46;;;;;;;60.28;32.38;;;;;;;-4.66;60.05;95477.41;5092454;28;20065;-68
2024/01/22 01:20:11;;;;;;;59.38;34.35;;;;;;;-4.46;58.54;95470.69;5092088;28;20032;-69
2024/01/22 01:22:37;;;;;;;66.63;35.42;;;;;;;-4.36;57.79;95451.44;5092306;28;20023;-69
2024/01/22 01:25:02;;;;;;;69.18;35.35;;;;;;;-4.35;57.44;95455.66;5092739;28;20051;-69
2024/01/22 01:27:28;;;;;;;69.30;35.38;;;;;;;-4.57;57.02;95406.22;5111561;28;20130;-69
2024/01/22 01:29:53;;;;;;;67.07;33.88;;;;;;;-4.21;56.56;95452.22;5111330;28;20073;-68
2024/01/22 01:32:19;;;;;;;64.97;35.80;;;;;;;-4.30;56.35;95454.13;5112148;28;20036;-68
2024/01/22 01:34:44;;;;;;;69.00;35.53;;;;;;;-4.47;56.72;95448.31;5112075;28;20020;-69
2024/01/22 01:37:09;;;;;;;65.05;33.83;;;;;;;-4.23;56.26;95454.19;5112567;28;20015;-69
2024/01/22 01:39:35;;;;;;;58.25;32.50;;;;;;;-4.11;56.61;95478.75;5111864;28;20540;-69
2024/01/22 01:42:00;;;;;;;72.32;35.25;;;;;;;-4.05;56.01;95452.03;5111735;28;20027;-68
2024/01/22 01:44:47;;;;;;;55.70;32.42;;;;;;;-4.03;55.72;95465.63;5112198;28;20489;-69
2024/01/22 01:47:12;;;;;;;63.63;32.72;;;;;;;-4.07;56.30;95438.41;5111070;28;20027;-69
2024/01/22 01:49:37;;;;;;;63.78;34.42;;;;;;;-4.05;56.08;95460.59;5093493;28;20026;-69
2024/01/22 01:52:03;;;;;;;63.78;32.80;;;;;;;-4.15;55.91;95452.31;5112252;28;20576;-69
2024/01/22 01:54:29;;;;;;;62.05;31.48;;;;;;;-3.97;55.50;95456.28;5111940;28;20032;-68
2024/01/22 01:56:55;;;;;;;62.22;33.33;;;;;;;-4.07;56.06;95448.78;5111873;28;20059;-69
2024/01/22 01:59:20;;;;;;;64.00;32.85;;;;;;;-4.14;55.91;95437.50;5110978;28;20704;-69
2024/01/22 02:01:46;;;;;;;54.40;31.48;;;;;;;-4.05;55.83;95457.22;5111867;28;20019;-69
2024/01/22 02:04:11;;;;;;;65.10;34.92;;;;;;;-4.89;57.73;95427.38;5111550;28;20062;-69
2024/01/22 02:06:36;;;;;;;68.22;34.78;;;;;;;-4.49;58.01;95460.66;5110431;28;20089;-68
2024/01/22 02:09:02;;;;;;;67.50;33.13;;;;;;;-4.18;57.14;95457.03;5111088;28;20035;-69
2024/01/22 02:11:29;;;;;;;62.45;33.35;;;;;;;-4.00;56.68;95462.69;5110958;28;20042;-69
2024/01/22 02:13:54;;;;;;;69.93;35.85;;;;;;;-4.79;57.33;95433.09;5111524;28;20115;-69
2024/01/22 02:16:20;;;;;;;62.20;33.03;;;;;;;-4.74;57.89;95445.53;5111916;28;20445;-69
2024/01/22 02:18:45;;;;;;;64.93;33.40;;;;;;;-4.85;58.40;95443.38;5110431;28;20032;-68
2024/01/22 02:21:10;;;;;;;70.72;35.03;;;;;;;-5.00;59.19;95454.56;5111321;28;20072;-69
2024/01/22 02:23:36;;;;;;;59.25;32.20;;;;;;;-4.57;58.65;95460.75;5111432;28;20068;-69
2024/01/22 02:26:01;;;;;;;60.95;33.63;;;;;;;-4.41;57.63;95439.00;5111057;28;20040;-69
2024/01/22 02:28:28;;;;;;;69.35;33.90;;;;;;;-4.25;56.71;95438.81;5111728;28;20396;-68
2024/01/22 02:30:53;;;;;;;66.57;34.47;;;;;;;-4.08;56.45;95455.78;5111204;28;20036;-68
2024/01/22 02:33:19;;;;;;;66.97;35.35;;;;;;;-3.99;56.33;95446.06;5111526;28;20039;-69
2024/01/22 02:35:44;;;;;;;68.78;37.05;;;;;;;-4.10;55.92;95443.97;5111477;28;20054;-69
2024/01/22 02:38:10;;;;;;;66.10;33.92;;;;;;;-4.54;56.38;95395.47;5092753;28;20459;-69
2024/01/22 02:40:35;;;;;;;73.53;36.90;;;;;;;-4.23;56.52;95443.78;5111301;28;20023;-69
2024/01/22 02:43:00;;;;;;;73.05;37.28;;;;;;;-4.20;56.46;95422.66;5111717;28;20022;-69
2024/01/22 02:45:26;;;;;;;67.05;36.05;;;;;;;-4.56;57.21;95438.19;5111024;28;20432;-69
2024/01/22 02:47:51;;;;;;;65.82;36.05;;;;;;;-5.20;58.64;95447.44;5110855;28;20100;-69
2024/01/22 02:50:16;;;;;;;70.20;36.90;;;;;;;-6.37;61.21;95434.78;5111363;28;20035;-69
2024/01/22 02:52:42;;;;;;;63.70;34.97;;;;;;;-7.15;64.11;95401.94;5111375;28;20020;-68
2024/01/22 02:55:07;;;;;;;71.55;36.75;;;;;;;-6.90;65.55;95463.94;5111277;28;20015;-69
2024/01/22 02:57:33;;;;;;;64.22;33.85;;;;;;;-6.94;65.62;95426.44;5111146;28;20571;-69
2024/01/22 02:59:58;;;;;;;67.13;35.97;;;;;;;-7.27;65.91;95423.91;5111116;28;20040;-68
2024/01/22 03:02:24;;;;;;;75.15;36.08;;;;;;;-6.93;66.84;95448.75;5111001;28;20447;-68
2024/01/22 03:04:49;;;;;;;61.75;33.63;;;;;;;-7.40;67.42;95415.03;5110919;28;20024;-69
2024/01/22 03:07:14;;;;;;;73.50;36.60;;;;;;;-7.43;67.71;95446.41;5111429;28;20031;-68
2024/01/22 03:09:40;;;;;;;69.00;35.45;;;;;;;-7.01;67.42;95446.97;5110888;28;20028;-68
2024/01/22 03:12:05;;;;;;;65.13;32.45;;;;;;;-6.97;67.37;95455.22;5114843;28;20496;-69
2024/01/22 03:14:31;;;;;;;67.60;33.13;;;;;;;-7.18;67.46;95440.25;5099489;28;20119;-68
2024/01/22 03:16:56;;;;;;;62.33;34.00;;;;;;;-6.87;67.42;95442.91;5117645;28;20092;-70
2024/01/22 03:19:21;;;;;;;64.13;33.28;;;;;;;-7.12;67.26;95460.25;5118118;28;20067;-68
2024/01/22 03:21:47;;;;;;;69.45;33.30;;;;;;;-7.40;68.46;95459.00;5117458;28;20069;-69
2024/01/22 03:24:12;;;;;;;75.45;36.08;;;;;;;-7.47;68.42;95445.94;5117647;28;20028;-68
2024/01/22 03:26:37;;;;;;;69.03;34.63;;;;;;;-7.20;67.90;95427.47;5099138;28;20122;-69
2024/01/22 03:29:03;;;;;;;61.88;31.77;;;;;;;-7.07;67.28;95458.78;5117711;28;20492;-69
2024/01/22 03:31:32;;;;;;;65.47;33.03;;;;;;;-7.24;67.57;95452.03;5118164;28;20027;-68
2024/01/22 03:33:58;;;;;;;69.32;33.22;;;;;;;-7.02;67.29;95457.47;5117759;28;20085;-69
2024/01/22 03:36:24;;;;;;;66.43;33.10;;;;;;;-7.07;66.98;95453.63;5117102;28;20031;-69
2024/01/22 03:38:50;;;;;;;64.80;31.38;;;;;;;-6.50;65.85;95457.84;5117625;28;20104;-69
2024/01/22 03:41:16;;;;;;;64.95;33.30;;;;;;;-6.51;64.97;95469.97;5117844;28;20500;-68
2024/01/22 03:43:42;;;;;;;64.70;33.00;;;;;;;-6.18;64.16;95468.84;5117217;28;20023;-69
2024/01/22 03:46:12;;;;;;;60.80;29.77;;;;;;;-6.26;63.00;95442.19;5117815;28;20012;-68
2024/01/22 03:48:38;;;;;;;60.42;30.25;;;;;;;-6.85;63.83;95464.25;5117339;28;20042;-68
2024/01/22 03:51:04;;;;;;;56.60;30.23;;;;;;;-6.71;64.78;95461.78;5117507;28;20231;-68
2024/01/22 03:53:30;;;;;;;58.58;31.92;;;;;;;-7.12;65.28;95453.31;5117402;28;20035;-69
2024/01/22 03:55:55;;;;;;;58.60;31.00;;;;;;;-7.05;65.79;95471.56;5117301;28;20451;-68
2024/01/22 03:58:20;;;;;;;53.35;27.60;;;;;;;-7.17;66.32;95457.34;5117701;28;20015;-68
2024/01/22 04:00:46;;;;;;;61.67;31.35;;;;;;;-6.98;64.90;95451.03;5117331;28;20042;-68
2024/01/22 04:03:11;;;;;;;58.80;30.58;;;;;;;-7.43;66.32;95462.72;5117260;28;20499;-69
2024/01/22 04:05:37;;;;;;;62.20;32.53;;;;;;;-7.50;67.67;95459.16;5117121;28;20076;-69
2024/01/22 04:08:03;;;;;;;53.47;27.88;;;;;;;-7.76;68.51;95476.59;5098665;28;20396;-68
2024/01/22 04:10:29;;;;;;;57.38;29.42;;;;;;;-7.43;67.61;95461.91;5099553;28;20707;-69
2024/01/22 04:12:55;;;;;;;54.15;29.75;;;;;;;-7.00;66.81;95471.06;5117283;28;20028;-69
2024/01/22 04:15:21;;;;;;;57.97;31.13;;;;;;;-7.08;66.15;95459.75;5116913;28;20027;-69
2024/01/22 04:17:46;;;;;;;53.33;29.50;;;;;;;-6.97;65.25;95471.53;5116902;28;20385;-68
2024/01/22 04:20:12;;;;;;;57.78;30.33;;;;;;;-6.94;65.59;95473.00;5115977;28;20066;-68
2024/01/22 04:22:37;;;;;;;59.88;30.60;;;;;;;-7.41;66.26;95455.59;5116152;28;20483;-68
2024/01/22 04:25:03;;;;;;;65.45;31.70;;;;;;;-7.15;66.47;95476.91;5114188;28;20433;-68
2024/01/22 04:27:28;;;;;;;53.88;29.02;;;;;;;-7.24;65.88;95462.38;5113488;28;20092;-68
2024/01/22 04:29:54;;;;;;;58.00;30.77;;;;;;;-7.22;66.24;95485.47;5113934;28;20101;-69
2024/01/22 04:32:19;;;;;;;59.25;30.60;;;;;;;-7.57;67.74;95456.41;5113966;28;20027;-69
2024/01/22 04:34:46;;;;;;;57.63;29.48;;;;;;;-7.74;67.45;95451.41;5113550;28;20043;-69
2024/01/22 04:37:12;;;;;;;63.80;32.55;;;;;;;-7.77;68.39;95459.47;5114396;28;20020;-69
2024/01/22 04:39:39;;;;;;;61.42;32.67;;;;;;;-7.59;69.32;95468.69;5113690;28;20032;-68
2024/01/22 04:42:04;;;;;;;64.88;33.00;;;;;;;-7.33;67.93;95453.03;5113289;28;20032;-69
2024/01/22 04:44:30;;;;;;;63.72;30.83;;;;;;;-7.29;67.99;95453.50;5095079;28;20039;-69
2024/01/22 04:46:56;;;;;;;66.28;33.58;;;;;;;-7.27;67.50;95454.13;5112656;28;20606;-68
2024/01/22 04:49:21;;;;;;;61.65;32.72;;;;;;;-6.93;66.72;95459.09;5113163;28;20516;-68
2024/01/22 04:51:47;;;;;;;65.95;33.30;;;;;;;-7.16;67.32;95484.81;5113373;28;20063;-68
2024/01/22 04:54:12;;;;;;;68.55;33.90;;;;;;;-6.96;67.00;95459.41;5094467;28;20028;-69
2024/01/22 04:56:42;;;;;;;69.95;33.60;;;;;;;-6.66;66.42;95480.22;5113058;28;20032;-69
2024/01/22 04:59:08;;;;;;;63.65;32.80;;;;;;;-6.34;65.33;95453.38;5113241;28;20039;-69
2024/01/22 05:01:34;;;;;;;65.60;32.58;;;;;;;-6.26;63.10;95463.72;5113233;28;20035;-69
2024/01/22 05:03:59;;;;;;;59.78;31.33;;;;;;;-6.15;62.68;95459.16;5113687;28;20019;-69
2024/01/22 05:06:24;;;;;;;59.47;30.60;;;;;;;-5.93;61.59;95468.72;5112913;28;20042;-69
2024/01/22 05:08:50;;;;;;;75.72;33.78;;;;;;;-6.32;61.89;95473.94;5113342;28;20565;-69
2024/01/22 05:11:17;;;;;;;63.33;31.42;;;;;;;-6.14;62.71;95484.03;5112748;28;20449;-69
2024/01/22 05:13:53;;;;;;;57.80;31.30;;;;;;;-6.08;62.03;95460.06;5113231;28;20019;-70
2024/01/22 05:16:19;;;;;;;58.67;30.33;;;;;;;-6.24;61.88;95461.75;5113694;28;20026;-69
2024/01/22 05:18:45;;;;;;;58.30;29.27;;;;;;;-5.89;61.43;95480.34;5112384;28;20503;-69
2024/01/22 05:21:11;;;;;;;56.05;29.25;;;;;;;-5.74;61.10;95478.66;5112918;28;20039;-69
2024/01/22 05:23:39;;;;;;;59.13;30.73;;;;;;;-6.16;61.38;95478.25;5094113;28;20400;-69
2024/01/22 05:26:06;;;;;;;60.40;31.85;;;;;;;-6.28;61.76;95463.06;5093810;28;20392;-69
2024/01/22 05:28:31;;;;;;;59.20;33.25;;;;;;;-6.31;61.52;95439.31;5113507;28;20021;-69
2024/01/22 05:30:57;;;;;;;63.20;30.13;;;;;;;-6.21;62.27;95492.50;5112990;28;20066;-71
2024/01/22 05:33:22;;;;;;;62.80;29.75;;;;;;;-6.94;64.10;95476.41;5112210;28;20500;-69
2024/01/22 05:35:48;;;;;;;58.65;31.75;;;;;;;-6.83;65.21;95486.38;5109691;28;20377;-69
2024/01/22 05:38:14;;;;;;;58.38;30.60;;;;;;;-6.99;65.08;95478.69;5110934;28;20023;-70
2024/01/22 05:40:40;;;;;;;61.13;32.08;;;;;;;-7.06;65.91;95488.03;5112188;28;20027;-71
2024/01/22 05:43:05;;;;;;;62.63;32.33;;;;;;;-6.92;65.76;95476.22;5111625;28;20023;-71
2024/01/22 05:45:31;;;;;;;64.50;30.77;;;;;;;-6.79;66.00;95490.28;5093114;28;20119;-70
2024/01/22 05:47:56;;;;;;;69.10;33.63;;;;;;;-7.16;65.65;95472.72;5111974;28;20480;-70
2024/01/22 05:50:22;;;;;;;67.60;34.10;;;;;;;-7.09;65.99;95484.03;5112200;28;20373;-72
2024/01/22 05:52:47;;;;;;;57.55;29.75;;;;;;;-7.16;65.93;95472.72;5111979;28;20027;-71
2024/01/22 05:55:13;;;;;;;55.67;28.67;;;;;;;-7.15;65.81;95479.50;5112381;28;20020;-70
2024/01/22 05:57:38;;;;;;;58.22;28.65;;;;;;;-7.58;65.48;95446.25;5112065;28;20028;-70
2024/01/22 06:00:12;;;;;;;52.22;28.00;;;;;;;-7.91;67.10;95470.44;5112309;28;20050;-70
2024/01/22 06:02:41;;;;;;;59.00;26.90;;;;;;;-8.04;68.26;95494.94;5093379;28;20080;-70
2024/01/22 06:05:07;;;;;;;57.67;27.80;;;;;;;-7.81;67.75;95463.34;5111479;28;20032;-70
2024/01/22 06:07:33;;;;;;;57.10;28.80;;;;;;;-7.78;67.38;95481.91;5112369;28;20495;-71
2024/01/22 06:09:58;;;;;;;61.15;31.63;;;;;;;-7.75;68.62;95475.59;5112410;28;20047;-71
2024/01/22 06:12:25;;;;;;;77.82;37.75;;;;;;;-7.46;67.62;95504.38;5111987;28;20028;-71
2024/01/22 06:14:51;;;;;;;74.68;35.95;;;;;;;-7.70;68.08;95491.44;5111592;28;20044;-71
2024/01/22 06:17:17;;;;;;;80.45;38.45;;;;;;;-7.71;68.32;95505.31;5093494;28;20107;-71
2024/01/22 06:19:42;;;;;;;73.53;35.70;;;;;;;-7.65;68.18;95484.81;5111645;28;20492;-71
2024/01/22 06:22:07;;;;;;;74.00;36.83;;;;;;;-7.56;67.74;95477.88;5112156;28;20039;-71
2024/01/22 06:24:36;;;;;;;71.45;35.95;;;;;;;-7.27;66.48;95483.38;5111775;28;20411;-71
2024/01/22 06:27:03;;;;;;;71.90;34.33;;;;;;;-6.93;65.63;95490.16;5111422;28;20043;-71
2024/01/22 06:29:28;;;;;;;70.88;33.28;;;;;;;-6.39;64.28;95512.63;5111571;28;20059;-71
2024/01/22 06:31:54;;;;;;;74.43;36.58;;;;;;;-6.21;63.00;95502.88;5111432;28;20392;-69
2024/01/22 06:34:19;;;;;;;59.50;30.45;;;;;;;-6.09;61.62;95484.34;5111991;28;20019;-69
2024/01/22 06:36:45;;;;;;;67.78;34.38;;;;;;;-5.88;60.45;95484.56;5111303;28;20500;-69
2024/01/22 06:39:11;;;;;;;74.03;35.75;;;;;;;-5.85;59.98;95497.97;5111434;28;20042;-69
2024/01/22 06:41:36;;;;;;;59.47;31.35;;;;;;;-5.98;61.05;95492.56;5093092;28;20381;-68
2024/01/22 06:44:02;;;;;;;62.20;32.17;;;;;;;-6.06;60.71;95489.22;5111252;28;20030;-69
2024/01/22 06:46:27;;;;;;;67.95;32.80;;;;;;;-7.03;62.82;95479.97;5109878;28;20023;-71
2024/01/22 06:48:53;;;;;;;68.72;34.85;;;;;;;-7.13;65.26;95484.53;5109792;28;20639;-71
2024/01/22 06:51:18;;;;;;;65.30;32.35;;;;;;;-6.61;65.35;95497.81;5110781;28;20039;-71
2024/01/22 06:53:44;;;;;;;61.83;32.17;;;;;;;-6.40;63.11;95479.97;5111168;28;20085;-69
2024/01/22 06:56:09;;;;;;;63.25;32.85;;;;;;;-6.08;62.74;95504.09;5111305;28;20034;-69
2024/01/22 06:58:35;;;;;;;75.13;36.95;;;;;;;-6.98;64.19;95506.13;5092927;28;20396;-69
2024/01/22 07:01:01;;;;;;;69.45;34.45;;;;;;;-7.42;65.97;95510.84;5092692;28;20114;-70
2024/01/22 07:03:26;;;;;;;75.38;37.85;;;;;;;-7.23;66.65;95525.25;5092585;28;20148;-70
2024/01/22 07:05:52;;;;;;;67.68;35.67;;;;;;;-7.32;66.48;95518.47;5110900;28;20496;-69
2024/01/22 07:08:18;;;;;;;75.18;34.10;;;;;;;-7.46;67.46;95530.22;5111320;28;20028;-69
2024/01/22 07:10:44;;;;;;;82.32;35.05;;;;;;;-7.43;68.23;95506.66;5110464;28;20047;-69
2024/01/22 07:13:09;;;;;;;82.68;39.85;;;;;;;-7.11;66.86;95537.69;5093251;28;20062;-69
2024/01/22 07:15:35;;;;;;;78.63;36.72;;;;;;;-6.97;66.33;95517.28;5110527;28;20401;-70
2024/01/22 07:18:00;;;;;;;66.68;33.22;;;;;;;-6.34;64.61;95512.94;5111423;28;20028;-70
2024/01/22 07:20:26;;;;;;;67.90;33.45;;;;;;;-5.91;62.85;95526.38;5109886;28;20404;-70
2024/01/22 07:22:53;;;;;;;67.35;33.78;;;;;;;-5.97;61.75;95527.84;5092895;28;20047;-70
2024/01/22 07:25:20;;;;;;;61.78;31.63;;;;;;;-5.77;61.62;95516.09;5111322;28;20030;-69
2024/01/22 07:27:45;;;;;;;68.78;32.97;;;;;;;-5.70;60.35;95500.66;5111163;28;20031;-70
2024/01/22 07:30:12;;;;;;;74.85;35.60;;;;;;;-5.73;59.95;95505.38;5093361;28;20047;-70
2024/01/22 07:32:40;;;;;;;74.75;35.20;;;;;;;-5.55;59.80;95524.84;5093178;28;20497;-71
2024/01/22 07:35:08;;;;;;;67.35;33.40;;;;;;;-5.36;59.46;95521.81;5111280;28;20028;-70
2024/01/22 07:37:37;;;;;;;64.10;31.85;;;;;;;-5.38;58.98;95515.19;5111865;28;20515;-70
2024/01/22 07:40:04;;;;;;;68.97;32.90;;;;;;;-5.41;58.79;95493.00;5111396;28;20476;-70
2024/01/22 07:42:34;;;;;;;65.63;32.60;;;;;;;-5.33;58.61;95505.09;5110798;28;20032;-70
2024/01/22 07:45:01;;;;;;;71.30;35.15;;;;;;;-5.49;59.25;95500.84;5110372;28;20043;-70
2024/01/22 07:47:27;;;;;;;67.43;33.70;;;;;;;-6.08;60.34;95479.00;5111256;28;20035;-70
2024/01/22 07:49:53;;;;;;;72.82;35.42;;;;;;;-6.32;61.80;95510.19;5092408;28;20031;-70
2024/01/22 07:52:19;;;;;;;63.67;34.95;;;;;;;-6.21;61.92;95482.16;5111340;28;20030;-70
2024/01/22 07:54:44;;;;;;;77.90;36.22;;;;;;;-6.19;62.37;95503.50;5110691;28;20103;-70
2024/01/22 07:57:10;;;;;;;78.40;37.67;;;;;;;-6.50;63.12;95502.66;5092593;28;20074;-70
2024/01/22 07:59:37;;;;;;;77.35;37.10;;;;;;;-6.60;63.94;95490.88;5114427;28;20469;-70
2024/01/22 08:02:04;;;;;;;72.25;36.08;;;;;;;-6.87;65.28;95515.34;5114276;28;20039;-70
2024/01/22 08:04:33;;;;;;;80.95;37.60;;;;;;;-7.39;67.61;95495.03;5114855;28;20440;-70
2024/01/22 08:07:00;;;;;;;79.28;40.22;;;;;;;-7.22;67.84;95506.16;5114058;28;20395;-70
2024/01/22 08:09:31;;;;;;;80.80;39.15;;;;;;;-7.46;67.29;95447.53;5095736;28;20047;-70
2024/01/22 08:11:57;;;;;;;76.35;38.47;;;;;;;-7.60;68.56;95492.91;5114075;28;20177;-70
2024/01/22 08:14:22;;;;;;;83.68;41.13;;;;;;;-7.24;68.97;95501.16;5114082;28;20532;-70
2024/01/22 08:16:49;;;;;;;84.35;40.63;;;;;;;-7.54;69.27;95475.97;5095549;28;20023;-69
2024/01/22 08:19:14;;;;;;;82.60;40.92;;;;;;;-7.31;69.39;95487.25;5114299;28;20024;-70
2024/01/22 08:21:40;;;;;;;86.05;40.65;;;;;;;-7.75;69.38;95426.53;5113815;28;20114;-70
2024/01/22 08:24:05;;;;;;;82.15;41.35;;;;;;;-6.98;68.38;95454.41;5113761;28;20032;-70
2024/01/22 08:26:30;;;;;;;82.60;39.08;;;;;;;-6.94;66.69;95462.66;5113289;28;20044;-70
2024/01/22 08:28:56;;;;;;;85.28;41.10;;;;;;;-7.01;67.07;95446.16;5113539;28;20531;-70
2024/01/22 08:31:23;;;;;;;89.28;41.30;;;;;;;-7.52;67.88;95443.81;5114259;28;20043;-70
2024/01/22 08:33:49;;;;;;;86.55;43.05;;;;;;;-7.51;69.17;95483.38;5113450;28;20036;-70
2024/01/22 08:36:15;;;;;;;86.07;40.38;;;;;;;-7.50;69.24;95472.06;5095236;28;20023;-70
2024/01/22 08:38:40;;;;;;;95.18;44.20;;;;;;;-7.60;68.38;95458.50;5113669;28;20036;-70
2024/01/22 08:41:08;;;;;;;88.63;42.70;;;;;;;-6.73;67.70;95483.63;5113557;28;20032;-70
2024/01/22 08:43:33;;;;;;;78.72;38.58;;;;;;;-6.47;65.98;95497.13;5113664;28;20020;-70
2024/01/22 08:45:59;;;;;;;80.93;40.17;;;;;;;-6.10;65.81;95504.25;5113794;28;20369;-70
2024/01/22 08:48:25;;;;;;;70.22;35.50;;;;;;;-6.01;63.53;95497.28;5113143;28;20032;-72
2024/01/22 08:50:50;;;;;;;75.90;38.88;;;;;;;-5.91;63.06;95477.16;5113422;28;20050;-70
2024/01/22 08:53:16;;;;;;;76.00;37.28;;;;;;;-5.72;62.15;95449.97;5113370;28;20020;-70
2024/01/22 08:55:41;;;;;;;78.00;36.90;;;;;;;-5.89;62.25;95475.16;5112862;28;20023;-70
2024/01/22 08:58:07;;;;;;;78.35;39.90;;;;;;;-6.39;63.80;95450.50;5113270;28;20036;-70
2024/01/22 09:00:32;;;;;;;71.85;37.35;;;;;;;-6.14;63.41;95438.22;5113023;28;20500;-70
2024/01/22 09:02:57;;;;;;;78.65;37.58;;;;;;;-5.94;63.75;95493.00;5112383;28;20028;-70
2024/01/22 09:05:23;;;;;;;83.82;43.42;;;;;;;-6.45;63.10;95469.31;5112360;28;20062;-70
2024/01/22 09:07:48;;;;;;;78.88;37.55;;;;;;;-6.42;64.71;95504.41;5112429;28;20034;-70
2024/01/22 09:10:15;;;;;;;74.68;36.72;;;;;;;-6.00;63.85;95483.31;5112149;28;20478;-70
2024/01/22 09:12:41;;;;;;;74.22;38.28;;;;;;;-5.94;63.15;95467.09;5112487;28;20028;-69
2024/01/22 09:15:07;;;;;;;76.07;37.78;;;;;;;-5.66;61.99;95470.03;5112902;28;20030;-70
2024/01/22 09:17:33;;;;;;;82.53;39.38;;;;;;;-5.61;61.76;95491.06;5093971;28;20027;-70
2024/01/22 09:19:59;;;;;;;72.07;36.22;;;;;;;-6.13;63.28;95446.81;5112328;28;20031;-70
2024/01/22 09:22:25;;;;;;;74.53;35.95;;;;;;;-5.91;62.95;95451.22;5112548;28;20366;-70
2024/01/22 09:24:51;;;;;;;72.95;37.90;;;;;;;-6.04;62.67;95451.78;5093527;28;20034;-70
2024/01/22 09:27:17;;;;;;;73.47;39.20;;;;;;;-6.03;62.65;95471.53;5093526;28;20046;-70
2024/01/22 09:29:43;;;;;;;77.07;37.95;;;;;;;-6.33;64.20;95462.78;5112155;28;20032;-70
2024/01/22 09:32:09;;;;;;;77.28;39.10;;;;;;;-6.37;64.14;95455.50;5112385;28;20512;-70
2024/01/22 09:34:36;;;;;;;72.28;36.63;;;;;;;-6.43;65.42;95489.84;5112326;28;20102;-70
2024/01/22 09:37:01;;;;;;;75.65;37.25;;;;;;;-6.38;65.01;95464.25;5111936;28;20069;-70
2024/01/22 09:39:26;;;;;;;69.60;33.67;;;;;;;-5.97;63.70;95431.19;5094016;28;20540;-70
2024/01/22 09:41:52;;;;;;;61.08;30.13;;;;;;;-5.40;61.85;95463.50;5093860;28;20114;-70
2024/01/22 09:44:18;;;;;;;60.25;32.83;;;;;;;-5.02;60.16;95473.88;5112396;28;20080;-70
2024/01/22 09:46:46;;;;;;;62.75;32.33;;;;;;;-5.26;59.51;95463.69;5112207;28;20064;-70
2024/01/22 09:49:12;;;;;;;73.07;39.85;;;;;;;-5.02;59.36;95460.88;5112747;28;20019;-70
2024/01/22 09:51:42;;;;;;;86.50;44.05;;;;;;;-4.62;58.96;95464.88;5112672;28;20038;-71
2024/01/22 09:54:11;;;;;;;64.05;33.53;;;;;;;-5.17;58.96;95441.91;5111820;28;20035;-70
2024/01/22 09:56:37;;;;;;;67.68;37.45;;;;;;;-4.65;58.97;95463.44;5094472;28;20038;-70
2024/01/22 09:59:20;;;;;;;65.93;34.53;;;;;;;-4.39;58.41;95464.78;5112049;28;20062;-70
2024/01/22 10:01:49;;;;;;;65.60;35.30;;;;;;;-4.32;57.49;95434.50;5109480;28;20484;-71
2024/01/22 10:04:15;;;;;;;64.50;34.65;;;;;;;-4.28;57.19;95446.13;5109620;28;20023;-70
2024/01/22 10:06:42;;;;;;;61.38;32.88;;;;;;;-4.07;56.67;95428.00;5111751;28;20496;-70
2024/01/22 10:09:07;;;;;;;60.33;31.70;;;;;;;-3.67;56.23;95445.63;5111706;28;20036;-71
2024/01/22 10:11:33;;;;;;;60.13;32.67;;;;;;;-3.50;55.91;95442.78;5111920;28;20740;-70
2024/01/22 10:13:58;;;;;;;60.42;32.40;;;;;;;-3.52;56.13;95426.56;5093375;28;20027;-70
2024/01/22 10:16:28;;;;;;;61.92;33.10;;;;;;;-3.71;55.19;95418.38;5111981;28;20019;-70
2024/01/22 10:19:05;;;;;;;68.93;34.45;;;;;;;-4.13;55.87;95431.31;5111607;28;20042;-70
2024/01/22 10:21:31;;;;;;;59.03;31.52;;;;;;;-3.96;56.75;95404.13;5111643;28;20059;-70
2024/01/22 10:24:04;;;;;;;62.40;32.92;;;;;;;-4.33;56.86;95410.31;5111523;28;20032;-70
2024/01/22 10:26:31;;;;;;;68.22;35.75;;;;;;;-4.17;57.42;95410.09;5111133;28;20044;-70
2024/01/22 10:29:22;;;;;;;65.97;35.75;;;;;;;-3.60;56.28;95412.69;5111440;28;20020;-71
2024/01/22 10:32:01;;;;;;;60.97;34.50;;;;;;;-3.77;55.99;95394.91;5111664;28;20542;-71
2024/01/22 10:34:30;;;;;;;67.38;34.95;;;;;;;-3.80;56.05;95390.88;5112198;28;20077;-71
2024/01/22 10:37:12;;;;;;;66.47;36.40;;;;;;;-3.61;56.50;95413.66;5110863;28;20076;-70
2024/01/22 10:39:40;;;;;;;63.58;36.58;;;;;;;-3.92;56.07;95402.78;5111536;28;20031;-70
2024/01/22 10:42:14;;;;;;;63.53;34.72;;;;;;;-3.66;56.14;95413.41;5110977;28;20028;-71
2024/01/22 10:44:42;;;;;;;68.10;36.10;;;;;;;-3.58;55.85;95376.91;5111319;28;20040;-70
2024/01/22 10:47:09;;;;;;;71.32;37.88;;;;;;;-3.72;56.35;95408.16;5111151;28;20500;-71
2024/01/22 10:49:35;;;;;;;72.00;39.35;;;;;;;-3.42;55.72;95398.44;5111323;28;20312;-71
2024/01/22 10:52:02;;;;;;;68.03;37.58;;;;;;;-3.13;55.28;95400.88;5111397;28;20069;-71
2024/01/22 10:54:32;;;;;;;76.35;38.20;;;;;;;-3.30;55.21;95373.50;5110808;28;20036;-71
2024/01/22 10:57:04;;;;;;;60.85;34.85;;;;;;;-3.47;54.88;95393.81;5110599;28;20040;-70
2024/01/22 10:59:36;;;;;;;73.88;40.60;;;;;;;-3.90;56.78;95379.97;5110982;28;20031;-70
2024/01/22 11:02:03;;;;;;;77.72;40.25;;;;;;;-4.10;57.78;95377.19;5111246;28;20034;-70
2024/01/22 11:05:21;;;;;;;75.53;38.63;;;;;;;-4.32;58.55;95377.34;5111626;28;20046;-70
2024/01/22 11:07:49;;;;;;;84.47;42.95;;;;;;;-4.60;59.86;95367.66;5104931;28;20036;-70
2024/01/22 11:10:15;;;;;;;89.72;42.97;;;;;;;-4.59;60.09;95369.28;5111398;28;20023;-70
2024/01/22 11:12:50;;;;;;;73.57;38.13;;;;;;;-4.66;59.65;95370.16;5110996;28;20106;-70